createdAt,value
2022-09-18T00:00:14.294Z,81.36
2022-09-18T00:02:40.756Z,80.74
2022-09-18T00:05:07.562Z,80.84
2022-09-18T00:07:33.982Z,81.25
2022-09-18T00:10:00.335Z,81.47
2022-09-18T00:12:26.729Z,81.28
2022-09-18T00:14:53.254Z,81.52
2022-09-18T00:17:19.721Z,81.78
2022-09-18T00:19:46.190Z,82.23
2022-09-18T00:22:12.513Z,82.40
2022-09-18T00:24:38.845Z,82.09
2022-09-18T00:27:05.321Z,82.32
2022-09-18T00:29:31.643Z,82.68
2022-09-18T00:31:59.802Z,82.85
2022-09-18T00:34:26.192Z,82.45
2022-09-18T00:36:52.523Z,82.76
2022-09-18T00:39:18.961Z,82.43
2022-09-18T00:41:45.431Z,82.71
2022-09-18T00:44:31.085Z,82.51
2022-09-18T00:47:09.594Z,82.69
2022-09-18T00:49:38.835Z,82.57
2022-09-18T00:52:06.015Z,82.51
2022-09-18T00:54:42.532Z,82.47
2022-09-18T00:57:12.711Z,83.06
2022-09-18T00:59:42.051Z,82.64
2022-09-18T01:02:09.176Z,82.42
2022-09-18T01:04:35.561Z,82.69
2022-09-18T01:07:10.854Z,82.71
2022-09-18T01:09:54.475Z,82.71
2022-09-18T01:12:37.596Z,82.43
2022-09-18T01:15:06.899Z,82.66
2022-09-18T01:17:49.806Z,82.23
2022-09-18T01:20:34.977Z,82.20
2022-09-18T01:23:31.110Z,81.95
2022-09-18T01:26:23.646Z,82.26
2022-09-18T01:29:13.869Z,82.47
2022-09-18T01:31:48.055Z,82.22
2022-09-18T01:34:41.787Z,81.93
2022-09-18T01:37:15.503Z,82.46
2022-09-18T01:40:24.093Z,82.52
2022-09-18T01:42:53.305Z,83.18
2022-09-18T01:45:26.295Z,82.67
2022-09-18T01:47:57.302Z,82.45
2022-09-18T01:50:28.351Z,82.29
2022-09-18T01:53:21.304Z,82.70
2022-09-18T01:55:55.254Z,82.63
2022-09-18T01:58:24.115Z,82.68
2022-09-18T02:00:54.090Z,82.61
2022-09-18T02:03:25.355Z,82.94
2022-09-18T02:05:56.180Z,82.91
2022-09-18T02:08:38.557Z,82.42
2022-09-18T02:11:13.502Z,82.60
2022-09-18T02:13:45.129Z,82.71
2022-09-18T02:16:21.647Z,82.91
2022-09-18T02:18:53.353Z,82.44
2022-09-18T02:21:25.646Z,82.56
2022-09-18T02:23:56.727Z,82.64
2022-09-18T02:26:24.078Z,82.65
2022-09-18T02:28:50.931Z,83.05
2022-09-18T02:31:20.281Z,82.82
2022-09-18T02:33:46.693Z,82.01
2022-09-18T02:36:31.805Z,82.47
2022-09-18T02:39:20.157Z,82.38
2022-09-18T02:42:01.097Z,83.24
2022-09-18T02:44:55.394Z,82.89
2022-09-18T02:47:56.231Z,83.19
2022-09-18T02:50:49.702Z,82.65
2022-09-18T02:53:34.104Z,83.22
2022-09-18T02:56:06.430Z,83.19
2022-09-18T02:58:57.496Z,82.61
2022-09-18T03:01:26.434Z,82.73
2022-09-18T03:03:52.843Z,83.40
2022-09-18T03:06:19.405Z,83.65
2022-09-18T03:08:46.455Z,83.80
2022-09-18T03:11:12.850Z,83.71
2022-09-18T03:13:39.177Z,84.03
2022-09-18T03:16:05.650Z,84.54
2022-09-18T03:18:31.982Z,84.21
2022-09-18T03:20:58.349Z,84.70
2022-09-18T03:23:24.739Z,84.27
2022-09-18T03:25:51.770Z,84.59
2022-09-18T03:28:18.468Z,84.68
2022-09-18T03:30:45.471Z,84.64
2022-09-18T03:33:11.870Z,85.14
2022-09-18T03:35:38.233Z,85.09
2022-09-18T03:38:05.354Z,85.27
2022-09-18T03:40:31.732Z,84.64
2022-09-18T03:42:58.166Z,84.77
2022-09-18T03:45:24.490Z,84.71
2022-09-18T03:47:50.895Z,85.00
2022-09-18T03:50:17.386Z,84.68
2022-09-18T03:52:45.669Z,84.69
2022-09-18T03:55:15.886Z,84.28
2022-09-18T03:57:42.228Z,84.85
2022-09-18T04:00:09.877Z,85.29
2022-09-18T04:02:36.268Z,84.96
2022-09-18T04:05:04.074Z,84.30
2022-09-18T04:07:30.430Z,84.65
2022-09-18T04:09:56.742Z,84.47
2022-09-18T04:12:23.135Z,85.02
2022-09-18T04:14:49.458Z,84.78
2022-09-18T04:17:16.559Z,85.16
2022-09-18T04:19:42.938Z,85.45
2022-09-18T04:22:09.425Z,85.43
2022-09-18T04:24:36.315Z,85.46
2022-09-18T04:27:02.901Z,85.50
2022-09-18T04:29:29.193Z,85.71
2022-09-18T04:31:55.529Z,86.28
2022-09-18T04:34:21.884Z,85.94
2022-09-18T04:36:48.578Z,86.46
2022-09-18T04:39:15.068Z,86.17
2022-09-18T04:41:41.574Z,86.18
2022-09-18T04:44:07.910Z,86.36
2022-09-18T04:46:34.359Z,86.29
2022-09-18T04:49:00.750Z,85.93
2022-09-18T04:51:27.237Z,86.59
2022-09-18T04:53:53.559Z,86.77
2022-09-18T04:56:19.898Z,86.79
2022-09-18T04:58:46.375Z,87.16
2022-09-18T05:01:12.808Z,87.04
2022-09-18T05:03:39.185Z,87.42
2022-09-18T05:06:05.958Z,87.57
2022-09-18T05:08:34.393Z,88.01
2022-09-18T05:11:01.136Z,88.29
2022-09-18T05:13:27.516Z,88.06
2022-09-18T05:15:55.854Z,88.50
2022-09-18T05:18:23.065Z,88.79
2022-09-18T05:20:49.767Z,88.79
2022-09-18T05:23:16.188Z,88.45
2022-09-18T05:25:43.009Z,88.58
2022-09-18T05:28:09.867Z,89.03
2022-09-18T05:30:36.473Z,88.76
2022-09-18T05:33:07.654Z,88.66
2022-09-18T05:35:35.751Z,88.65
2022-09-18T05:38:03.995Z,89.13
2022-09-18T05:40:35.664Z,89.47
2022-09-18T05:43:05.646Z,89.82
2022-09-18T05:45:32.262Z,89.71
2022-09-18T05:48:01.018Z,88.86
2022-09-18T05:50:28.938Z,89.17
2022-09-18T05:53:02.350Z,89.03
2022-09-18T05:55:31.728Z,89.74
2022-09-18T05:57:59.716Z,89.09
2022-09-18T06:00:27.421Z,89.17
2022-09-18T06:03:00.174Z,89.51
2022-09-18T06:05:28.295Z,89.04
2022-09-18T06:07:59.530Z,88.96
2022-09-18T06:10:26.501Z,89.33
2022-09-18T06:13:03.889Z,88.97
2022-09-18T06:15:30.343Z,88.90
2022-09-18T06:17:56.706Z,88.83
2022-09-18T06:20:23.110Z,88.77
2022-09-18T06:22:49.474Z,88.89
2022-09-18T06:25:19.100Z,88.72
2022-09-18T06:27:45.513Z,88.86
2022-09-18T06:30:12.448Z,89.04
2022-09-18T06:32:38.768Z,88.71
2022-09-18T06:35:05.751Z,88.72
2022-09-18T06:37:32.111Z,88.92
2022-09-18T06:39:58.517Z,88.95
2022-09-18T06:42:24.865Z,88.38
2022-09-18T06:44:51.179Z,88.27
2022-09-18T06:47:17.525Z,87.87
2022-09-18T06:49:43.834Z,88.67
2022-09-18T06:52:10.167Z,87.79
2022-09-18T06:54:36.492Z,87.58
2022-09-18T06:57:02.878Z,88.03
2022-09-18T06:59:29.327Z,87.43
2022-09-18T07:01:55.954Z,88.25
2022-09-18T07:04:22.374Z,88.11
2022-09-18T07:06:48.692Z,88.45
2022-09-18T07:09:15.134Z,88.36
2022-09-18T07:11:41.457Z,88.52
2022-09-18T07:14:08.293Z,87.78
2022-09-18T07:16:35.780Z,88.04
2022-09-18T07:19:02.725Z,87.91
2022-09-18T07:21:29.410Z,87.30
2022-09-18T07:23:55.754Z,87.39
2022-09-18T07:26:22.291Z,87.59
2022-09-18T07:28:48.885Z,87.16
2022-09-18T07:31:15.309Z,86.57
2022-09-18T07:33:41.725Z,86.75
2022-09-18T07:36:08.241Z,86.71
2022-09-18T07:38:35.292Z,86.71
2022-09-18T07:41:02.457Z,86.36
2022-09-18T07:43:28.903Z,86.22
2022-09-18T07:45:55.218Z,86.12
2022-09-18T07:48:21.636Z,85.06
2022-09-18T07:50:47.977Z,85.75
2022-09-18T07:53:14.315Z,84.60
2022-09-18T07:55:42.904Z,84.38
2022-09-18T07:58:09.488Z,84.52
2022-09-18T08:00:37.630Z,83.99
2022-09-18T08:03:06.737Z,84.18
2022-09-18T08:05:33.221Z,83.75
2022-09-18T08:08:07.861Z,83.91
2022-09-18T08:10:35.936Z,83.95
2022-09-18T08:13:03.750Z,83.82
2022-09-18T08:15:31.486Z,83.03
2022-09-18T08:17:58.147Z,83.06
2022-09-18T08:20:24.747Z,83.39
2022-09-18T08:22:51.251Z,82.54
2022-09-18T08:25:18.124Z,82.17
2022-09-18T08:27:44.922Z,82.15
2022-09-18T08:30:14.243Z,82.44
2022-09-18T08:32:40.574Z,81.93
2022-09-18T08:35:07.335Z,81.87
2022-09-18T08:37:33.752Z,81.59
2022-09-18T08:40:00.437Z,81.27
2022-09-18T08:42:33.299Z,81.36
2022-09-18T08:45:07.513Z,81.38
2022-09-18T08:47:41.994Z,80.88
2022-09-18T08:50:29.042Z,80.78
2022-09-18T08:53:20.380Z,80.54
2022-09-18T08:55:49.729Z,79.93
2022-09-18T08:58:35.323Z,80.05
2022-09-18T09:01:15.792Z,79.81
2022-09-18T09:04:00.791Z,79.56
2022-09-18T09:06:47.587Z,79.18
2022-09-18T09:09:37.351Z,79.88
2022-09-18T09:12:09.758Z,79.76
2022-09-18T09:15:08.536Z,79.21
2022-09-18T09:17:40.634Z,78.99
2022-09-18T09:20:36.193Z,79.12
2022-09-18T09:23:23.096Z,79.23
2022-09-18T09:25:55.281Z,79.65
2022-09-18T09:28:38.826Z,80.35
2022-09-18T09:31:09.102Z,80.38
2022-09-18T09:34:27.550Z,80.23
2022-09-18T09:36:58.177Z,79.65
2022-09-18T09:39:32.704Z,80.49
2022-09-18T09:42:05.489Z,79.84
2022-09-18T09:44:40.842Z,80.52
2022-09-18T09:47:13.319Z,81.34
2022-09-18T09:50:06.911Z,81.33
2022-09-18T09:52:33.496Z,81.08
2022-09-18T09:55:18.462Z,81.37
2022-09-18T09:58:19.767Z,81.04
2022-09-18T10:01:10.515Z,81.45
2022-09-18T10:04:10.689Z,81.45
2022-09-18T10:07:03.549Z,81.68
2022-09-18T10:10:12.879Z,81.98
2022-09-18T10:13:01.560Z,82.90
2022-09-18T10:15:39.445Z,82.49
2022-09-18T10:18:26.526Z,82.43
2022-09-18T10:21:02.326Z,82.95
2022-09-18T10:23:38.818Z,83.30
2022-09-18T10:26:06.286Z,83.84
2022-09-18T10:28:32.930Z,84.18
2022-09-18T10:30:59.331Z,84.43
2022-09-18T10:33:39.280Z,84.23
2022-09-18T10:36:33.399Z,84.46
2022-09-18T10:39:00.347Z,84.95
2022-09-18T10:41:30.018Z,84.00
2022-09-18T10:44:05.725Z,83.36
2022-09-18T10:46:35.682Z,82.17
2022-09-18T10:49:20.675Z,81.79
2022-09-18T10:51:47.072Z,81.92
2022-09-18T10:54:18.150Z,80.81
2022-09-18T10:56:45.519Z,79.88
2022-09-18T10:59:32.776Z,78.99
2022-09-18T11:02:01.411Z,79.21
2022-09-18T11:04:29.038Z,78.28
2022-09-18T11:06:56.932Z,77.66
2022-09-18T11:09:35.129Z,76.75
2022-09-18T11:12:01.971Z,77.38
2022-09-18T11:14:40.418Z,76.89
2022-09-18T11:17:13.719Z,76.22
2022-09-18T11:19:40.256Z,74.04
2022-09-18T11:22:44.170Z,75.04
2022-09-18T11:25:26.541Z,74.77
2022-09-18T11:27:58.438Z,74.10
2022-09-18T11:30:28.281Z,74.26
2022-09-18T11:33:00.600Z,75.49
2022-09-18T11:35:29.947Z,73.94
2022-09-18T11:38:00.501Z,73.51
2022-09-18T11:40:45.050Z,72.86
2022-09-18T11:43:16.449Z,72.84
2022-09-18T11:46:07.487Z,72.55
2022-09-18T11:48:49.886Z,73.15
2022-09-18T11:51:36.127Z,73.37
2022-09-18T11:54:08.284Z,73.85
2022-09-18T11:56:40.809Z,73.02
2022-09-18T11:59:29.255Z,73.21
2022-09-18T12:02:13.900Z,73.60
2022-09-18T12:04:49.335Z,72.48
2022-09-18T12:07:40.122Z,72.81
2022-09-18T12:10:17.433Z,73.58
2022-09-18T12:13:12.060Z,71.83
2022-09-18T12:15:41.416Z,72.49
2022-09-18T12:18:13.079Z,73.12
2022-09-18T12:20:55.735Z,72.84
2022-09-18T12:23:24.583Z,73.53
2022-09-18T12:26:30.112Z,74.60
2022-09-18T12:29:31.301Z,76.51
2022-09-18T12:32:03.628Z,77.06
2022-09-18T12:34:51.451Z,77.60
2022-09-18T12:37:52.725Z,78.75
2022-09-18T12:40:35.098Z,80.50
2022-09-18T12:43:19.770Z,81.43
2022-09-18T12:45:58.504Z,83.41
2022-09-18T12:49:03.495Z,84.14
2022-09-18T12:51:43.177Z,85.77
2022-09-18T12:54:21.677Z,85.69
2022-09-18T12:57:15.152Z,84.80
2022-09-18T13:00:03.154Z,83.39
2022-09-18T13:02:51.285Z,83.11
2022-09-18T13:05:35.253Z,84.28
2022-09-18T13:08:14.658Z,84.44
2022-09-18T13:10:47.171Z,84.87
2022-09-18T13:13:40.568Z,85.52
2022-09-18T13:16:14.492Z,86.34
2022-09-18T13:18:51.818Z,85.73
2022-09-18T13:21:27.957Z,86.27
2022-09-18T13:23:55.372Z,86.72
2022-09-18T13:26:25.010Z,86.49
2022-09-18T13:28:51.517Z,87.30
2022-09-18T13:31:28.444Z,86.96
2022-09-18T13:34:07.404Z,86.79
2022-09-18T13:36:37.430Z,87.04
2022-09-18T13:39:26.951Z,87.41
2022-09-18T13:41:55.536Z,87.03
2022-09-18T13:44:35.430Z,87.32
2022-09-18T13:47:15.944Z,87.59
2022-09-18T13:49:55.875Z,87.56
2022-09-18T13:52:29.536Z,88.16
2022-09-18T13:55:13.555Z,87.93
2022-09-18T13:57:41.622Z,87.57
2022-09-18T14:00:20.298Z,87.35
2022-09-18T14:02:50.977Z,86.98
2022-09-18T14:05:36.920Z,86.59
2022-09-18T14:08:24.395Z,86.31
2022-09-18T14:11:17.311Z,86.45
2022-09-18T14:13:51.278Z,86.61
2022-09-18T14:16:21.594Z,86.79
2022-09-18T14:18:47.960Z,87.14
2022-09-18T14:21:17.251Z,86.76
2022-09-18T14:23:46.707Z,86.41
2022-09-18T14:26:28.343Z,86.95
2022-09-18T14:28:57.482Z,86.86
2022-09-18T14:31:31.354Z,86.71
2022-09-18T14:34:05.282Z,86.97
2022-09-18T14:36:54.806Z,86.67
2022-09-18T14:39:31.932Z,86.87
2022-09-18T14:42:16.896Z,87.79
2022-09-18T14:44:54.564Z,87.23
2022-09-18T14:47:26.778Z,86.88
2022-09-18T14:49:53.893Z,86.39
2022-09-18T14:52:24.185Z,86.56
2022-09-18T14:54:53.909Z,86.27
2022-09-18T14:57:23.850Z,85.99
2022-09-18T14:59:52.941Z,85.99
2022-09-18T15:02:34.679Z,85.76
2022-09-18T15:05:03.852Z,86.46
2022-09-18T15:07:30.515Z,86.33
2022-09-18T15:10:00.431Z,86.38
2022-09-18T15:12:30.542Z,86.73
2022-09-18T15:14:58.705Z,87.17
2022-09-18T15:17:27.619Z,87.24
2022-09-18T15:20:15.962Z,87.34
2022-09-18T15:22:42.705Z,86.66
2022-09-18T15:25:16.480Z,87.38
2022-09-18T15:27:44.937Z,87.38
2022-09-18T15:30:18.648Z,87.21
2022-09-18T15:32:51.215Z,87.52
2022-09-18T15:35:23.700Z,87.88
2022-09-18T15:38:00.908Z,87.43
2022-09-18T15:40:33.437Z,86.93
2022-09-18T15:43:03.373Z,86.82
2022-09-18T15:45:44.699Z,86.95
2022-09-18T15:48:33.957Z,87.17
2022-09-18T15:51:18.377Z,87.27
2022-09-18T15:54:01.550Z,87.10
2022-09-18T15:56:29.846Z,87.43
2022-09-18T15:58:58.795Z,87.52
2022-09-18T16:01:29.499Z,86.86
2022-09-18T16:04:07.916Z,86.82
2022-09-18T16:06:42.529Z,87.36
2022-09-18T16:09:23.904Z,86.61
2022-09-18T16:11:50.316Z,86.06
2022-09-18T16:14:43.929Z,86.32
2022-09-18T16:17:28.599Z,86.93
2022-09-18T16:20:00.224Z,86.55
2022-09-18T16:22:29.582Z,87.17
2022-09-18T16:24:57.660Z,86.70
2022-09-18T16:27:25.610Z,87.04
2022-09-18T16:29:51.951Z,87.20
2022-09-18T16:32:20.181Z,87.77
2022-09-18T16:34:47.325Z,87.02
2022-09-18T16:37:17.005Z,84.48
2022-09-18T16:39:44.152Z,84.29
2022-09-18T16:42:18.709Z,85.25
2022-09-18T16:44:46.007Z,84.98
2022-09-18T16:47:14.603Z,85.84
2022-09-18T16:49:46.852Z,86.88
2022-09-18T16:52:13.819Z,86.32
2022-09-18T16:54:40.197Z,86.67
2022-09-18T16:57:12.435Z,87.22
2022-09-18T16:59:41.783Z,88.20
2022-09-18T17:02:09.093Z,88.33
2022-09-18T17:04:35.672Z,88.37
2022-09-18T17:07:03.300Z,89.06
2022-09-18T17:09:30.266Z,88.92
2022-09-18T17:11:56.796Z,88.58
2022-09-18T17:14:24.350Z,88.76
2022-09-18T17:16:51.307Z,88.20
2022-09-18T17:19:18.206Z,87.77
2022-09-18T17:21:44.753Z,88.26
2022-09-18T17:24:11.576Z,88.27
2022-09-18T17:26:39.711Z,88.13
2022-09-18T17:29:06.323Z,87.78
2022-09-18T17:31:32.806Z,88.37
2022-09-18T17:33:59.213Z,88.89
2022-09-18T17:36:25.561Z,88.73
2022-09-18T17:38:52.230Z,88.97
2022-09-18T17:41:19.476Z,89.33
2022-09-18T17:43:51.511Z,88.69
2022-09-18T17:46:17.930Z,89.36
2022-09-18T17:48:44.292Z,88.69
2022-09-18T17:51:15.292Z,88.68
2022-09-18T17:53:43.632Z,88.56
2022-09-18T17:56:14.940Z,88.45
2022-09-18T17:58:43.896Z,88.70
2022-09-18T18:01:12.759Z,88.67
2022-09-18T18:03:39.295Z,88.61
2022-09-18T18:06:05.998Z,89.20
2022-09-18T18:08:32.504Z,88.88
2022-09-18T18:11:07.342Z,88.81
2022-09-18T18:13:36.800Z,88.45
2022-09-18T18:16:09.112Z,88.44
2022-09-18T18:18:37.034Z,88.72
2022-09-18T18:21:05.203Z,88.73
2022-09-18T18:23:32.526Z,88.52
2022-09-18T18:26:04.620Z,89.19
2022-09-18T18:28:32.664Z,90.04
2022-09-18T18:31:07.555Z,90.30
2022-09-18T18:33:36.275Z,90.92
2022-09-18T18:36:20.854Z,89.75
2022-09-18T18:38:50.164Z,90.22
2022-09-18T18:41:19.073Z,90.32
2022-09-18T18:43:45.766Z,90.37
2022-09-18T18:46:15.429Z,90.58
2022-09-18T18:48:43.545Z,90.69
2022-09-18T18:51:13.971Z,90.51
2022-09-18T18:53:43.832Z,91.17
2022-09-18T18:56:13.396Z,90.53
2022-09-18T18:58:40.800Z,90.56
2022-09-18T19:01:09.316Z,90.67
2022-09-18T19:03:39.965Z,91.21
2022-09-18T19:06:06.692Z,91.09
2022-09-18T19:08:35.574Z,91.13
2022-09-18T19:11:04.898Z,90.92
2022-09-18T19:13:41.206Z,91.39
2022-09-18T19:16:07.747Z,90.79
2022-09-18T19:18:34.154Z,91.12
2022-09-18T19:21:00.497Z,90.60
2022-09-18T19:23:26.948Z,90.34
2022-09-18T19:25:57.672Z,90.26
2022-09-18T19:28:24.326Z,90.05
2022-09-18T19:30:53.612Z,89.98
2022-09-18T19:33:21.063Z,90.01
2022-09-18T19:35:47.382Z,90.30
2022-09-18T19:38:16.149Z,90.38
2022-09-18T19:40:42.749Z,90.51
2022-09-18T19:43:14.810Z,90.59
2022-09-18T19:45:43.759Z,90.99
2022-09-18T19:48:21.548Z,91.09
2022-09-18T19:50:48.075Z,91.49
2022-09-18T19:53:15.218Z,90.56
2022-09-18T19:55:47.541Z,90.67
2022-09-18T19:58:15.575Z,90.49
2022-09-18T20:00:43.678Z,89.76
2022-09-18T20:03:10.905Z,90.35
2022-09-18T20:05:42.313Z,90.00
2022-09-18T20:08:09.419Z,90.25
2022-09-18T20:10:37.798Z,90.64
2022-09-18T20:13:05.202Z,90.48
2022-09-18T20:15:31.559Z,90.59
2022-09-18T20:17:58.299Z,90.10
2022-09-18T20:20:25.960Z,90.24
2022-09-18T20:22:53.812Z,90.84
2022-09-18T20:25:20.940Z,90.71
2022-09-18T20:27:47.521Z,90.15
2022-09-18T20:30:14.245Z,90.38
2022-09-18T20:32:41.281Z,90.47
2022-09-18T20:35:08.001Z,89.81
2022-09-18T20:37:34.469Z,89.69
2022-09-18T20:40:04.685Z,90.09
2022-09-18T20:42:32.644Z,89.72
2022-09-18T20:45:02.289Z,89.88
2022-09-18T20:47:34.975Z,89.65
2022-09-18T20:50:10.032Z,89.97
2022-09-18T20:52:39.068Z,90.26
2022-09-18T20:55:14.353Z,89.80
2022-09-18T20:57:41.715Z,90.12
2022-09-18T21:00:10.272Z,89.79
2022-09-18T21:02:37.648Z,89.81
2022-09-18T21:05:08.590Z,89.65
2022-09-18T21:07:34.934Z,89.66
2022-09-18T21:10:01.460Z,89.74
2022-09-18T21:12:38.132Z,90.06
2022-09-18T21:15:07.486Z,89.70
2022-09-18T21:17:33.825Z,90.15
2022-09-18T21:20:02.076Z,90.24
2022-09-18T21:22:30.244Z,90.20
2022-09-18T21:24:56.545Z,90.03
2022-09-18T21:27:22.946Z,90.55
2022-09-18T21:29:49.282Z,90.56
2022-09-18T21:32:15.704Z,90.59
2022-09-18T21:34:43.850Z,90.34
2022-09-18T21:37:12.032Z,90.41
2022-09-18T21:39:38.933Z,90.93
2022-09-18T21:42:07.279Z,90.89
2022-09-18T21:44:37.768Z,90.81
2022-09-18T21:47:07.310Z,90.91
2022-09-18T21:49:34.506Z,91.40
2022-09-18T21:52:04.431Z,91.38
2022-09-18T21:54:31.863Z,91.28
2022-09-18T21:56:59.004Z,91.30
2022-09-18T21:59:35.841Z,91.52
2022-09-18T22:02:03.377Z,91.45
2022-09-18T22:04:32.318Z,91.44
2022-09-18T22:07:01.302Z,91.95
2022-09-18T22:09:30.894Z,91.41
2022-09-18T22:11:58.205Z,91.58
2022-09-18T22:14:28.567Z,91.55
2022-09-18T22:16:56.261Z,91.77
2022-09-18T22:19:22.933Z,91.84
2022-09-18T22:21:50.626Z,92.05
2022-09-18T22:24:20.736Z,92.00
2022-09-18T22:27:08.409Z,91.45
2022-09-18T22:29:38.248Z,91.50
2022-09-18T22:32:05.070Z,91.69
2022-09-18T22:34:34.712Z,91.52
2022-09-18T22:37:01.616Z,91.87
2022-09-18T22:39:28.585Z,91.18
2022-09-18T22:41:55.222Z,91.09
2022-09-18T22:44:22.525Z,91.00
2022-09-18T22:46:51.856Z,90.94
2022-09-18T22:49:19.248Z,91.41
2022-09-18T22:51:46.111Z,90.95
2022-09-18T22:54:13.966Z,91.44
2022-09-18T22:56:46.073Z,91.18
2022-09-18T22:59:15.210Z,91.34
2022-09-18T23:01:48.855Z,91.40
2022-09-18T23:04:17.937Z,91.32
2022-09-18T23:06:45.584Z,91.16
2022-09-18T23:09:13.762Z,90.68
2022-09-18T23:11:41.530Z,90.72
2022-09-18T23:14:13.807Z,90.73
2022-09-18T23:16:40.260Z,91.59
2022-09-18T23:19:11.849Z,91.35
2022-09-18T23:21:39.105Z,90.92
2022-09-18T23:24:09.065Z,90.92
2022-09-18T23:26:39.932Z,90.98
2022-09-18T23:29:09.696Z,90.93
2022-09-18T23:31:38.725Z,90.92
2022-09-18T23:34:07.841Z,90.57
2022-09-18T23:36:40.026Z,90.57
2022-09-18T23:39:15.836Z,90.18
2022-09-18T23:41:42.638Z,90.47
2022-09-18T23:44:12.381Z,90.90
2022-09-18T23:46:39.324Z,90.55
2022-09-18T23:49:08.321Z,90.27
2022-09-18T23:51:37.469Z,90.56
2022-09-18T23:54:05.651Z,90.28
2022-09-18T23:56:37.034Z,90.40
2022-09-18T23:59:06.421Z,89.80
